CYVC

La Ronge Airport

La Ronge, Saskatchewan, Canada
METAR CYVC 171800Z 18004KT 15SM BKN190 06/M00 A2989 RMK AC5 SLP141
Observed Flight Rules
Oct-17 @ 18:00 UTC (21 minutes ago) Visual Flight Rules
Wind Visibility Clouds
180° at 4 knots 15 miles
  • Broken at 19,000' AGL
Temperatures Readings
Current 6°C / 43°F
Dewpoint 0°C / 32°F
Humidity 66%
Altimeter 29.89" Hg
Pressure 1014.1 hPa
Elevation 379
METAR CYVC 171800Z 18004KT 15SM BKN190 06/M00 A2989 RMK AC5 SLP141
Observed Flight Rules
Oct-17 @ 18:00 UTC
(21 minutes ago)
VFR
Wind Visibility
180° at 4 knots 15 miles
Clouds
  • Broken at 19,000' AGL
Temperature Dewpoint
6°C / 43°F 0°C / 32°F
Humidity Altimeter Pressure
66% 29.89" Hg 1014.1 hPa